This is the latest recevied weather packets stored in our database for station/object KM4KBD. If no packets are shown the sender has not sent any weather packets the latest 10 day(s).
| Time | Temp. | Humidity | Pressure | Rain* | Wind** | Luminosity | Snow |
|---|---|---|---|---|---|---|---|
| 1777921356 | 24.44° C | 51% | 1016.4 hPa | 0 mm | - | 686 W/m² | - |
| 1777921052 | 23.89° C | 52% | 1016.6 hPa | 0 mm | - | 691 W/m² | - |
| 1777920141 | 23.89° C | 55% | 1016.8 hPa | 0 mm | - | 708 W/m² | - |
| 1777919837 | 23.33° C | 52% | 1016.7 hPa | 0 mm | - | 715 W/m² | - |
| 1777919534 | 23.33° C | 53% | 1016.9 hPa | 0 mm | - | 723 W/m² | - |
| 1777919232 | 22.78° C | 54% | 1016.8 hPa | 0 mm | - | 725 W/m² | - |
| 1777918929 | 22.78° C | 54% | 1016.7 hPa | 0 mm | - | 730 W/m² | - |
| 1777918627 | 22.78° C | 54% | 1016.8 hPa | 0 mm | - | 734 W/m² | - |
| 1777918324 | 22.78° C | 54% | 1016.9 hPa | 0 mm | - | 738 W/m² | - |
| 1777918023 | 22.78° C | 54% | 1016.9 hPa | 0 mm | - | 742 W/m² | - |
| 1777917721 | 22.22° C | 55% | 1016.9 hPa | 0 mm | - | 745 W/m² | - |
| 1777917418 | 22.22° C | 55% | 1017 hPa | 0 mm | - | 747 W/m² | - |
| 1777917115 | 22.22° C | 58% | 1017 hPa | 0 mm | - | 748 W/m² | - |
| 1777916206 | 22.22° C | 56% | 1016.9 hPa | 0 mm | - | 754 W/m² | - |
| 1777915904 | 21.67° C | 59% | 1017.1 hPa | 0 mm | - | 755 W/m² | - |
| 1777915600 | 22.22° C | 56% | 1017.2 hPa | 0 mm | - | 756 W/m² | - |
| 1777915297 | 21.67° C | 56% | 1017.4 hPa | 0 mm | - | 755 W/m² | - |
| 1777914387 | 21.11° C | 57% | 1017.6 hPa | 0 mm | - | 751 W/m² | - |
| 1777914085 | 21.11° C | 61% | 1017.4 hPa | 0 mm | - | 748 W/m² | - |
| 1777913477 | 20.56° C | 60% | 1017.6 hPa | 0 mm | - | 747 W/m² | - |
| 1777913174 | 20.56° C | 60% | 1017.8 hPa | 0 mm | - | 743 W/m² | - |
| 1777912870 | 20.56° C | 59% | 1017.8 hPa | 0 mm | - | 741 W/m² | - |
| 1777912263 | 20° C | 60% | 1017.8 hPa | 0 mm | - | 730 W/m² | - |
| 1777911959 | 20° C | 61% | 1017.9 hPa | 0 mm | - | 726 W/m² | - |
| 1777908929 | 17.22° C | 65% | 1018.5 hPa | 0 mm | - | 442 W/m² | - |
* Rain latest hour (hover to see other rain measurements)
** Current wind speed in m/s (hover to see current wind gust speed)